Time;durP1;ratioP1;P1;durP2;ratioP2;P2;SDS_P1;SDS_P2;PMS_P1;PMS_P2;Temp;Humidity;BMP_temperature;BMP_pressure;BME280_temperature;BME280_humidity;BME280_pressure;Samples;Min_cycle;Max_cycle;Signal;HPM_P1;HPM_P2
2023/10/13 00:00:41;;;;;;;4.53;3.50;;;;;;;19.06;96.58;100283.63;5017692;28;20705;-82
2023/10/13 00:03:14;;;;;;;4.93;4.43;;;;;;;19.05;96.64;100288.00;5022304;28;20222;-81
2023/10/13 00:05:41;;;;;;;4.23;3.83;;;;;;;19.04;96.34;100287.19;5023270;28;20230;-81
2023/10/13 00:08:08;;;;;;;4.97;3.87;;;;;;;19.06;96.14;100286.25;5029200;28;20183;-82
2023/10/13 00:10:34;;;;;;;4.50;4.07;;;;;;;19.06;96.32;100287.09;5019735;28;20187;-78
2023/10/13 00:13:11;;;;;;;4.23;3.70;;;;;;;19.07;95.98;100280.06;5024907;28;20210;-82
2023/10/13 00:15:56;;;;;;;4.50;3.93;;;;;;;19.04;96.16;100276.69;5018674;28;20249;-82
2023/10/13 00:18:22;;;;;;;4.73;3.60;;;;;;;19.05;95.81;100285.38;5020691;28;20588;-85
2023/10/13 00:20:50;;;;;;;4.53;3.90;;;;;;;19.04;95.80;100281.06;5021456;28;20196;-81
2023/10/13 00:23:22;;;;;;;4.43;3.87;;;;;;;19.04;95.65;100276.69;5019719;28;20189;-81
2023/10/13 00:25:56;;;;;;;5.43;3.93;;;;;;;19.04;95.81;100276.69;5016086;28;20214;-82
2023/10/13 00:28:26;;;;;;;4.43;4.00;;;;;;;19.02;94.96;100275.91;5012636;28;20182;-82
2023/10/13 00:30:59;;;;;;;4.33;3.63;;;;;;;19.04;94.85;100278.44;5019162;28;20191;-83
2023/10/13 00:33:25;;;;;;;4.13;3.77;;;;;;;19.02;94.21;100268.03;5022491;28;20202;-83
2023/10/13 00:35:57;;;;;;;4.87;3.90;;;;;;;19.01;93.89;100266.31;5022990;28;20187;-80
2023/10/13 00:38:23;;;;;;;4.50;4.10;;;;;;;19.01;93.35;100271.56;5016910;28;20209;-80
2023/10/13 00:40:51;;;;;;;5.07;4.17;;;;;;;19.01;92.89;100266.31;5025186;28;20580;-79
2023/10/13 00:45:57;;;;;;;4.33;3.93;;;;;;;19.03;92.40;100266.25;5029874;28;20185;-82
2023/10/13 00:48:32;;;;;;;5.90;3.97;;;;;;;19.03;91.75;100261.00;5020647;28;20246;-81
2023/10/13 00:51:07;;;;;;;4.97;3.80;;;;;;;19.04;91.68;100258.31;5022644;28;20183;-77
2023/10/13 00:53:39;;;;;;;5.03;3.83;;;;;;;19.04;91.10;100257.44;5014958;28;20194;-81
2023/10/13 00:56:12;;;;;;;7.93;4.40;;;;;;;19.04;91.30;100254.84;5020740;28;20197;-80
2023/10/13 00:58:42;;;;;;;4.50;4.10;;;;;;;19.06;91.22;100258.25;5022199;28;20191;-83
2023/10/13 01:01:29;;;;;;;5.10;4.00;;;;;;;19.06;90.68;100260.88;5019696;28;20212;-79
2023/10/13 01:04:02;;;;;;;4.80;3.70;;;;;;;19.07;90.31;100256.44;5020221;28;20248;-82
2023/10/13 01:06:28;;;;;;;3.97;3.50;;;;;;;19.08;90.22;100266.91;5011654;28;20183;-81
2023/10/13 01:09:13;;;;;;;4.10;3.50;;;;;;;19.08;90.11;100253.78;5022020;28;20182;-81
2023/10/13 01:11:44;;;;;;;4.13;3.50;;;;;;;19.09;89.47;100258.13;5020793;28;20579;-79
2023/10/13 01:14:17;;;;;;;4.23;3.83;;;;;;;19.10;89.42;100256.31;5046900;28;20197;-82
2023/10/13 01:16:45;;;;;;;3.97;3.50;;;;;;;19.09;89.07;100255.50;5024031;28;20330;-82
2023/10/13 01:19:19;;;;;;;4.00;3.50;;;;;;;19.12;88.88;100257.97;5044453;28;20222;-83
2023/10/13 01:21:45;;;;;;;4.80;3.67;;;;;;;19.12;88.92;100244.88;5026301;28;20225;-79
2023/10/13 01:24:13;;;;;;;3.63;3.10;;;;;;;19.13;88.96;100245.69;5029492;28;20835;-83
2023/10/13 01:26:39;;;;;;;5.53;3.67;;;;;;;19.15;88.57;100243.88;5028491;28;20259;-77
2023/10/13 01:29:14;;;;;;;3.67;3.27;;;;;;;19.13;88.94;100240.44;5024753;28;20374;-82
2023/10/13 01:31:45;;;;;;;3.93;3.50;;;;;;;19.14;88.37;100236.91;5031342;28;20205;-83
2023/10/13 01:34:21;;;;;;;4.20;3.20;;;;;;;19.14;88.46;100244.78;5026245;28;20189;-80
2023/10/13 01:36:50;;;;;;;3.93;3.50;;;;;;;19.14;88.50;100245.63;5039441;28;20203;-82
2023/10/13 01:39:16;;;;;;;3.50;3.20;;;;;;;19.14;88.27;100242.16;5023818;28;20663;-79
2023/10/13 01:41:42;;;;;;;4.30;3.67;;;;;;;19.16;88.49;100238.53;5056346;28;20215;-83
2023/10/13 01:44:11;;;;;;;4.30;3.57;;;;;;;19.15;88.35;100230.75;5031427;28;20305;-80
2023/10/13 01:46:37;;;;;;;4.37;3.07;;;;;;;19.13;88.49;100230.81;5032506;28;20272;-82
2023/10/13 01:49:02;;;;;;;6.10;4.47;;;;;;;19.11;88.64;100210.81;5043795;28;20186;-79
2023/10/13 01:51:28;;;;;;;4.27;3.87;;;;;;;19.11;88.66;100209.06;5053092;28;20219;-78
2023/10/13 01:53:57;;;;;;;4.23;3.40;;;;;;;19.11;88.93;100210.81;5035476;28;20252;-84
2023/10/13 01:56:23;;;;;;;4.00;3.60;;;;;;;19.10;89.47;100207.34;5030186;28;21165;-83
2023/10/13 01:58:49;;;;;;;4.73;3.60;;;;;;;19.09;89.53;100202.16;5028746;28;20187;-83
2023/10/13 02:01:26;;;;;;;3.63;3.33;;;;;;;19.08;89.65;100188.22;5026425;28;20670;-82
2023/10/13 02:04:01;;;;;;;4.23;3.23;;;;;;;19.03;89.93;100185.81;5025205;28;20588;-81
2023/10/13 02:06:32;;;;;;;3.30;3.00;;;;;;;19.00;89.81;100185.94;5031262;28;20237;-82
2023/10/13 02:09:02;;;;;;;3.67;3.27;;;;;;;18.96;89.56;100183.53;5021017;28;20182;-80
2023/10/13 02:11:28;;;;;;;3.50;3.20;;;;;;;18.89;89.84;100183.78;5029204;28;20319;-79
2023/10/13 02:13:56;;;;;;;3.90;3.60;;;;;;;18.83;90.87;100177.97;5029933;28;20191;-82
2023/10/13 02:16:22;;;;;;;4.53;3.50;;;;;;;18.75;91.47;100183.53;5028532;28;20184;-79
2023/10/13 02:18:52;;;;;;;4.60;3.90;;;;;;;18.69;92.03;100179.44;5023784;28;20195;-81
2023/10/13 02:21:17;;;;;;;4.07;3.67;;;;;;;18.65;92.92;100179.63;5018551;28;20216;-82
2023/10/13 02:23:46;;;;;;;4.53;3.77;;;;;;;18.58;93.20;100181.69;5054176;28;20204;-79
2023/10/13 02:26:14;;;;;;;3.93;3.53;;;;;;;18.52;93.85;100171.47;5032585;28;20611;-84
2023/10/13 02:28:40;;;;;;;5.03;3.87;;;;;;;18.43;94.38;100176.19;5021795;28;20201;-79
2023/10/13 02:31:06;;;;;;;4.33;3.70;;;;;;;18.36;95.14;100172.13;5021710;28;20193;-82
2023/10/13 02:33:33;;;;;;;4.27;3.70;;;;;;;18.28;95.43;100169.00;5018047;28;20266;-83
2023/10/13 02:36:04;;;;;;;3.90;3.60;;;;;;;18.19;96.18;100175.47;5014497;28;20220;-82
2023/10/13 02:41:11;;;;;;;4.40;3.90;;;;;;;18.01;97.40;100163.16;5028020;28;20201;-81
2023/10/13 02:43:37;;;;;;;4.17;3.77;;;;;;;17.91;97.76;100155.66;5028464;28;20649;-81
2023/10/13 02:46:03;;;;;;;3.70;3.40;;;;;;;17.85;98.55;100158.53;5019804;28;20199;-81
2023/10/13 02:48:40;;;;;;;4.73;3.73;;;;;;;17.77;99.18;100152.78;5026449;28;20184;-82
2023/10/13 02:51:15;;;;;;;4.13;3.77;;;;;;;17.70;99.48;100160.00;5025497;28;20198;-81
2023/10/13 02:53:52;;;;;;;5.70;4.30;;;;;;;17.63;99.47;100153.31;5018804;28;20595;-84
2023/10/13 02:56:21;;;;;;;4.40;3.47;;;;;;;17.55;99.43;100148.41;5023093;28;20189;-81
2023/10/13 02:58:53;;;;;;;4.70;4.10;;;;;;;17.50;100.00;100151.22;5019953;28;20286;-81
2023/10/13 03:01:19;;;;;;;4.63;3.70;;;;;;;17.45;100.00;100142.69;5024579;28;20294;-79
2023/10/13 03:03:54;;;;;;;4.57;3.97;;;;;;;17.39;99.96;100140.31;5021520;28;20334;-85
2023/10/13 03:06:24;;;;;;;4.17;3.77;;;;;;;17.35;100.00;100139.56;5015601;28;20187;-84
2023/10/13 03:08:51;;;;;;;4.40;4.00;;;;;;;17.32;100.00;100139.69;5021467;28;20188;-81
2023/10/13 03:11:22;;;;;;;4.47;4.07;;;;;;;17.30;100.00;100140.66;5014985;28;20571;-82
2023/10/13 03:13:51;;;;;;;4.10;3.67;;;;;;;17.25;100.00;100138.25;5022696;28;20266;-80
2023/10/13 03:16:17;;;;;;;3.70;3.40;;;;;;;17.23;100.00;100134.00;5024602;28;20179;-83
2023/10/13 03:18:56;;;;;;;4.23;3.83;;;;;;;17.22;99.68;100135.75;5027177;28;20758;-81
2023/10/13 03:21:29;;;;;;;4.20;3.50;;;;;;;17.19;99.43;100139.34;5022514;28;20213;-80
2023/10/13 03:24:06;;;;;;;4.57;3.33;;;;;;;17.18;98.83;100132.41;5022045;28;20239;-83
2023/10/13 03:26:36;;;;;;;3.60;3.27;;;;;;;17.18;98.66;100134.16;5022264;28;20802;-80
2023/10/13 03:29:06;;;;;;;4.17;3.53;;;;;;;17.18;97.94;100134.16;5027048;28;20193;-81
2023/10/13 03:31:36;;;;;;;4.03;3.67;;;;;;;17.18;97.61;100132.41;5024803;28;20695;-80
2023/10/13 03:34:03;;;;;;;4.93;3.80;;;;;;;17.18;97.14;100127.16;5023332;28;20831;-84
2023/10/13 03:39:13;;;;;;;4.10;3.70;;;;;;;17.15;97.03;100126.44;5020852;28;20761;-80
2023/10/13 03:41:40;;;;;;;3.53;3.23;;;;;;;17.15;97.02;100126.44;5020971;28;20240;-82
2023/10/13 03:44:13;;;;;;;4.77;3.27;;;;;;;17.13;96.96;100126.50;5023256;28;20184;-82
2023/10/13 03:46:40;;;;;;;3.97;3.57;;;;;;;17.13;97.12;100133.50;5019932;28;20176;-81
2023/10/13 03:49:08;;;;;;;4.70;3.40;;;;;;;17.11;97.72;100130.09;5018712;28;20679;-83
2023/10/13 03:51:38;;;;;;;4.27;3.57;;;;;;;17.08;97.82;100117.13;5022505;28;20210;-78
2023/10/13 03:54:07;;;;;;;3.73;3.43;;;;;;;17.03;97.94;100123.38;5052343;28;20176;-78
2023/10/13 03:56:38;;;;;;;4.10;3.70;;;;;;;16.99;97.87;100120.94;5041510;28;20241;-84
2023/10/13 03:59:06;;;;;;;4.13;3.70;;;;;;;16.94;97.85;100123.72;5024607;28;20206;-84
2023/10/13 04:04:15;;;;;;;4.90;4.00;;;;;;;16.85;98.67;100111.84;5028895;28;20190;-79
2023/10/13 04:06:54;;;;;;;4.40;4.00;;;;;;;16.81;99.34;100105.00;5020727;28;20179;-82
2023/10/13 04:17:22;;;;;;;4.77;4.30;;;;;;;16.57;100.00;100105.03;5019646;28;20284;-79
2023/10/13 04:25:52;;;;;;;5.97;4.93;;;;;;;16.42;100.00;100093.38;5027495;28;20234;-82
2023/10/13 04:33:43;;;;;;;5.17;4.00;;;;;;;16.29;100.00;100087.75;5027022;28;20187;-81
2023/10/13 04:41:42;;;;;;;5.47;4.87;;;;;;;16.13;100.00;100084.81;5020129;28;20214;-81
2023/10/13 04:49:49;;;;;;;6.10;5.40;;;;;;;15.98;100.00;100065.34;5022680;28;20249;-80
2023/10/13 04:58:11;;;;;;;5.93;5.30;;;;;;;15.85;100.00;100067.53;5025941;28;20207;-80
2023/10/13 05:04:08;;;;;;;6.17;4.93;;;;;;;15.76;100.00;100057.38;4999314;28;20671;-85
2023/10/13 06:28:40;;;;;;;6.37;5.00;;;;;;;16.22;100.00;100051.47;5020963;28;20626;-79
2023/10/13 06:31:06;;;;;;;7.10;5.57;;;;;;;16.23;100.00;100061.84;5020153;28;20322;-81
2023/10/13 06:33:35;;;;;;;7.10;5.50;;;;;;;16.24;100.00;100060.97;5025884;28;20210;-82
2023/10/13 06:36:09;;;;;;;5.07;4.63;;;;;;;16.26;100.00;100059.16;5025832;28;20192;-82
2023/10/13 06:38:37;;;;;;;5.90;5.00;;;;;;;16.27;100.00;100066.06;5021558;28;20207;-81
2023/10/13 06:41:07;;;;;;;5.63;5.13;;;;;;;16.29;100.00;100064.25;5024036;28;20268;-81
2023/10/13 06:43:39;;;;;;;5.40;4.73;;;;;;;16.33;100.00;100058.94;5025829;28;20569;-81
2023/10/13 06:46:04;;;;;;;5.33;4.83;;;;;;;16.36;100.00;100064.88;5025122;28;20261;-81
2023/10/13 06:48:40;;;;;;;5.20;4.70;;;;;;;16.40;100.00;100065.63;5025579;28;20180;-83
2023/10/13 06:51:17;;;;;;;6.47;5.33;;;;;;;16.45;100.00;100071.53;5022827;28;20274;-81
2023/10/13 06:53:46;;;;;;;5.30;4.80;;;;;;;16.51;100.00;100070.44;5024199;28;20916;-80
2023/10/13 06:56:16;;;;;;;6.27;4.80;;;;;;;16.55;100.00;100065.06;5021379;28;20237;-79
2023/10/13 06:58:46;;;;;;;6.13;4.97;;;;;;;16.60;100.00;100067.47;5022965;28;20207;-80
2023/10/13 07:01:16;;;;;;;5.10;4.60;;;;;;;16.66;100.00;100063.78;5014802;28;20665;-81
2023/10/13 07:03:52;;;;;;;5.80;4.90;;;;;;;16.73;100.00;100071.34;5022131;28;20267;-83
2023/10/13 07:06:19;;;;;;;5.80;5.20;;;;;;;16.81;100.00;100071.03;5018521;28;20201;-79
2023/10/13 07:08:52;;;;;;;5.70;4.87;;;;;;;16.88;100.00;100071.66;5026350;28;20208;-82
2023/10/13 07:11:32;;;;;;;5.20;4.17;;;;;;;16.95;100.00;100065.31;5023912;28;20647;-81
2023/10/13 07:14:10;;;;;;;5.90;4.73;;;;;;;17.04;100.00;100069.34;5021101;28;21038;-81
2023/10/13 07:16:59;;;;;;;5.60;4.97;;;;;;;17.18;100.00;100074.88;5025242;28;20192;-81
2023/10/13 07:19:27;;;;;;;5.33;4.70;;;;;;;17.29;100.00;100063.13;5025792;28;20188;-81
2023/10/13 07:21:58;;;;;;;6.13;5.47;;;;;;;17.41;100.00;100061.78;5020355;28;20284;-82
2023/10/13 07:24:27;;;;;;;6.23;5.63;;;;;;;17.51;100.00;100063.09;5022919;28;20232;-81
2023/10/13 07:26:57;;;;;;;5.40;4.90;;;;;;;17.61;100.00;100060.94;5025517;28;20179;-83
2023/10/13 07:29:24;;;;;;;7.43;5.60;;;;;;;17.72;100.00;100063.13;5023298;28;20304;-83
2023/10/13 07:31:50;;;;;;;5.13;4.33;;;;;;;17.85;100.00;100052.97;5025709;28;20575;-82
2023/10/13 07:34:26;;;;;;;5.00;4.43;;;;;;;18.00;100.00;100051.50;5024205;28;20186;-80
2023/10/13 07:37:01;;;;;;;7.30;4.60;;;;;;;18.18;99.62;100044.56;5015750;28;20214;-82
2023/10/13 07:39:28;;;;;;;5.17;4.60;;;;;;;18.30;97.19;100048.44;5027118;28;20187;-82
2023/10/13 07:41:55;;;;;;;4.97;4.20;;;;;;;18.40;95.75;100050.56;5019204;28;20285;-81
2023/10/13 07:44:31;;;;;;;4.77;4.07;;;;;;;18.42;95.34;100046.13;5020828;28;20184;-79
2023/10/13 07:47:02;;;;;;;5.70;4.40;;;;;;;18.43;94.33;100047.81;5020266;28;20221;-82
2023/10/13 07:49:37;;;;;;;4.97;4.07;;;;;;;18.46;94.06;100048.56;5028698;28;20179;-81
2023/10/13 07:54:55;;;;;;;5.77;4.33;;;;;;;18.54;93.41;100049.06;5020821;28;20662;-82
2023/10/13 07:57:29;;;;;;;4.83;4.10;;;;;;;18.57;93.14;100047.16;5020473;28;20198;-81
2023/10/13 08:00:06;;;;;;;5.07;4.43;;;;;;;18.58;93.43;100050.66;5025670;28;20705;-84
2023/10/13 08:02:51;;;;;;;4.83;3.87;;;;;;;18.59;93.17;100047.94;5026643;28;20213;-82
2023/10/13 08:05:29;;;;;;;5.97;4.43;;;;;;;18.61;93.32;100049.66;5031769;28;20198;-77
2023/10/13 08:07:55;;;;;;;4.37;3.90;;;;;;;18.65;93.86;100054.66;5053046;28;20176;-80
2023/10/13 08:10:29;;;;;;;6.47;4.40;;;;;;;18.70;93.89;100050.06;5035030;28;20195;-80
2023/10/13 08:12:56;;;;;;;6.03;4.30;;;;;;;18.78;93.71;100051.47;5022546;28;20293;-81
2023/10/13 08:15:31;;;;;;;5.40;4.20;;;;;;;18.88;93.77;100043.09;5048502;28;20200;-82
2023/10/13 08:17:58;;;;;;;6.70;4.57;;;;;;;19.12;92.96;100042.03;5017671;28;20231;-82
2023/10/13 08:20:26;;;;;;;5.67;4.10;;;;;;;19.39;92.32;100034.59;5022305;28;20568;-82
2023/10/13 08:23:09;;;;;;;9.13;4.47;;;;;;;19.50;90.80;100034.88;5021853;28;20222;-81
2023/10/13 08:31:14;;;;;;;6.93;4.77;;;;;;;20.05;85.23;100030.38;5023844;28;21032;-82
2023/10/13 08:33:46;;;;;;;6.47;4.10;;;;;;;20.18;83.94;100030.56;5023598;28;20210;-78
2023/10/13 08:36:27;;;;;;;7.90;4.80;;;;;;;20.40;84.84;100026.81;5020854;28;20184;-78
2023/10/13 08:38:55;;;;;;;10.73;4.90;;;;;;;20.58;83.81;100035.47;5021621;28;20195;-81
2023/10/13 08:43:53;;;;;;;7.80;4.63;;;;;;;20.89;83.76;100035.56;5023826;28;20179;-82
2023/10/13 08:46:29;;;;;;;6.47;4.23;;;;;;;21.05;83.67;100033.75;5015840;28;20231;-81
2023/10/13 08:52:25;;;;;;;6.03;3.87;;;;;;;21.28;82.59;100032.44;5020379;28;20259;-80
2023/10/13 08:55:26;;;;;;;6.63;4.03;;;;;;;21.29;82.59;100026.22;5026716;28;20730;-84
2023/10/13 08:57:37;;;;;;;6.53;4.00;;;;;;;21.33;81.45;100019.00;5018138;28;20218;-82
2023/10/13 09:03:28;;;;;;;7.73;4.17;;;;;;;21.54;81.42;100018.69;5024186;28;20215;-83
2023/10/13 09:06:01;;;;;;;5.33;3.70;;;;;;;21.66;81.10;100017.16;5018788;28;20237;-86
2023/10/13 09:08:35;;;;;;;7.27;4.50;;;;;;;21.64;81.27;100017.22;5016966;28;20693;-81
2023/10/13 09:11:12;;;;;;;7.07;3.83;;;;;;;21.78;79.16;100017.25;5020159;28;20187;-82
2023/10/13 09:13:43;;;;;;;6.20;3.67;;;;;;;21.87;77.62;100010.56;5022140;28;20209;-82
2023/10/13 09:16:16;;;;;;;8.63;4.13;;;;;;;22.16;75.90;100000.03;5024848;28;20661;-78
2023/10/13 09:18:46;;;;;;;7.50;3.70;;;;;;;22.17;74.67;99998.25;5015087;28;20287;-82
2023/10/13 09:21:43;;;;;;;7.33;3.77;;;;;;;22.28;74.12;99994.94;5021137;28;20191;-80
2023/10/13 09:24:21;;;;;;;7.13;3.40;;;;;;;22.42;71.59;99986.19;5021658;28;20905;-84
2023/10/13 09:26:53;;;;;;;7.23;3.83;;;;;;;22.54;71.81;99982.75;5020199;28;20191;-81
2023/10/13 09:29:18;;;;;;;7.03;4.10;;;;;;;22.88;71.71;99985.03;5025685;28;20800;-81
2023/10/13 09:31:48;;;;;;;6.23;3.80;;;;;;;23.13;71.55;99990.38;5024049;28;20203;-80
2023/10/13 09:34:20;;;;;;;5.37;3.70;;;;;;;23.23;71.10;99988.00;5024747;28;20244;-81
2023/10/13 09:36:47;;;;;;;5.80;3.50;;;;;;;23.37;70.26;99978.28;5023941;28;20207;-82
2023/10/13 09:39:29;;;;;;;5.53;3.33;;;;;;;23.40;68.72;99986.03;5019081;28;20287;-80
2023/10/13 09:41:55;;;;;;;10.83;3.60;;;;;;;23.54;67.90;99985.91;5025277;28;20215;-79
2023/10/13 09:44:21;;;;;;;6.37;3.40;;;;;;;23.37;66.46;99981.78;5026327;28;20198;-84
2023/10/13 09:46:49;;;;;;;8.33;3.80;;;;;;;23.57;66.23;99972.50;5028908;28;20558;-81
2023/10/13 09:49:33;;;;;;;4.87;3.03;;;;;;;23.52;66.45;99973.78;5030059;28;20270;-82
2023/10/13 09:52:01;;;;;;;7.63;3.60;;;;;;;23.44;65.91;99967.22;5050008;28;20215;-82
2023/10/13 09:54:41;;;;;;;9.83;3.40;;;;;;;23.39;65.57;99966.66;5034628;28;20225;-81
2023/10/13 09:57:18;;;;;;;8.70;3.73;;;;;;;23.41;65.64;99950.75;5023051;28;20286;-81
2023/10/13 10:00:06;;;;;;;8.90;3.70;;;;;;;23.36;65.39;99948.41;5023266;28;20191;-81
2023/10/13 10:02:32;;;;;;;6.73;3.70;;;;;;;23.62;64.99;99945.78;5020834;28;20718;-83
2023/10/13 10:05:15;;;;;;;7.67;3.30;;;;;;;23.84;65.07;99942.47;5022701;28;20192;-79
2023/10/13 10:07:40;;;;;;;5.73;3.50;;;;;;;24.14;64.85;99941.28;5020716;28;20180;-82
2023/10/13 10:10:08;;;;;;;9.70;3.77;;;;;;;23.98;64.34;99936.22;5020925;28;20179;-83
2023/10/13 10:13:07;;;;;;;6.03;3.40;;;;;;;24.10;64.56;99933.69;5026295;28;20224;-81
2023/10/13 10:15:35;;;;;;;6.47;3.27;;;;;;;24.32;64.42;99941.75;5068426;28;20191;-77
2023/10/13 10:18:02;;;;;;;6.93;3.60;;;;;;;24.24;64.25;99928.25;5029088;28;20310;-82
2023/10/13 10:20:48;;;;;;;8.17;3.40;;;;;;;24.38;63.66;99921.94;5035580;28;20198;-81
2023/10/13 10:23:43;;;;;;;6.57;3.50;;;;;;;24.52;63.75;99931.53;5026907;28;20214;-80
2023/10/13 10:26:20;;;;;;;6.93;3.63;;;;;;;24.65;63.74;99927.03;5021599;28;20713;-81
2023/10/13 10:28:46;;;;;;;6.27;3.67;;;;;;;24.81;63.78;99924.09;5019061;28;20931;-81
2023/10/13 10:31:12;;;;;;;7.27;3.90;;;;;;;24.74;61.76;99920.22;5027421;28;20456;-80
2023/10/13 10:33:39;;;;;;;5.80;3.37;;;;;;;24.83;62.02;99924.00;5024826;28;20302;-80
2023/10/13 10:36:05;;;;;;;11.20;3.90;;;;;;;25.01;61.91;99919.13;5022856;28;20183;-84
2023/10/13 10:40:57;;;;;;;15.00;4.00;;;;;;;24.90;60.82;99914.63;5025060;28;20199;-82
2023/10/13 10:43:42;;;;;;;10.93;3.70;;;;;;;25.03;60.75;99911.06;5024469;28;20194;-83
2023/10/13 10:46:28;;;;;;;7.50;3.67;;;;;;;25.03;60.35;99908.44;5028776;28;20190;-78
2023/10/13 10:49:00;;;;;;;6.27;3.30;;;;;;;25.22;60.45;99907.84;5014693;28;20184;-79
2023/10/13 10:51:33;;;;;;;6.33;3.70;;;;;;;25.42;59.97;99907.16;5017599;28;20841;-83
2023/10/13 10:54:11;;;;;;;4.47;3.60;;;;;;;25.48;59.19;99900.59;5023155;28;20187;-82
2023/10/13 10:56:37;;;;;;;5.60;3.27;;;;;;;25.13;59.31;99911.19;5018266;28;20213;-80
2023/10/13 10:59:05;;;;;;;7.97;3.60;;;;;;;25.46;59.17;99902.50;5024977;28;20632;-81
2023/10/13 11:01:46;;;;;;;8.37;3.83;;;;;;;25.54;59.19;99904.56;5022160;28;20261;-82
2023/10/13 11:04:24;;;;;;;7.50;3.67;;;;;;;25.43;59.11;99900.09;5017546;28;20200;-81
2023/10/13 11:06:58;;;;;;;5.77;3.50;;;;;;;25.53;59.47;99901.03;5028113;28;20187;-80
2023/10/13 11:12:15;;;;;;;7.03;3.73;;;;;;;25.77;58.86;99894.78;5019899;28;20215;-83
2023/10/13 11:14:48;;;;;;;8.47;3.07;;;;;;;25.76;58.51;99884.28;5028000;28;20179;-79
2023/10/13 11:17:26;;;;;;;13.73;4.00;;;;;;;25.46;57.94;99872.50;5021633;28;20211;-81
2023/10/13 11:19:52;;;;;;;13.37;3.90;;;;;;;25.63;57.58;99865.91;5018091;28;20183;-81
2023/10/13 11:22:32;;;;;;;9.00;3.67;;;;;;;25.74;57.36;99857.06;5037083;28;20264;-82
2023/10/13 11:25:11;;;;;;;6.97;3.67;;;;;;;25.74;57.36;99860.56;5013604;28;20995;-85
2023/10/13 11:27:44;;;;;;;17.27;3.93;;;;;;;25.68;57.81;99866.34;5021567;28;20552;-80
2023/10/13 11:30:20;;;;;;;6.77;3.23;;;;;;;25.43;58.08;99849.75;5014842;28;20271;-82
2023/10/13 11:32:46;;;;;;;8.30;3.63;;;;;;;25.79;57.57;99842.47;5004806;28;20200;-83
2023/10/13 11:35:21;;;;;;;8.63;3.03;;;;;;;25.96;57.89;99851.75;5014572;28;20593;-81
2023/10/13 11:37:56;;;;;;;6.63;3.23;;;;;;;26.00;57.53;99837.28;5016643;28;20599;-81
2023/10/13 11:40:43;;;;;;;15.77;3.93;;;;;;;25.67;56.78;99830.22;5022223;28;20603;-84
2023/10/13 11:43:21;;;;;;;14.87;4.23;;;;;;;25.61;57.23;99823.59;5025345;28;20207;-81
2023/10/13 11:46:12;;;;;;;6.03;3.50;;;;;;;25.62;57.29;99827.94;5009871;28;20198;-82
2023/10/13 11:48:39;;;;;;;6.07;3.50;;;;;;;25.82;57.47;99822.84;5020098;28;20192;-82
2023/10/13 11:51:07;;;;;;;10.43;3.77;;;;;;;25.97;58.08;99821.63;5021537;28;20187;-84
2023/10/13 11:53:34;;;;;;;7.33;3.70;;;;;;;25.83;57.21;99817.41;5015005;28;20669;-85
2023/10/13 11:55:59;;;;;;;7.00;3.80;;;;;;;25.99;57.47;99813.53;5015598;28;20195;-79
2023/10/13 11:58:25;;;;;;;7.90;3.57;;;;;;;25.99;57.80;99810.88;5022273;28;20214;-82
2023/10/13 12:00:51;;;;;;;7.33;3.87;;;;;;;25.83;57.89;99806.00;5023470;28;20266;-82
2023/10/13 12:06:19;;;;;;;9.93;3.73;;;;;;;25.87;57.16;99797.66;5016528;28;20265;-83
2023/10/13 12:08:52;;;;;;;9.33;3.73;;;;;;;26.04;57.83;99798.09;5019538;28;20192;-84
2023/10/13 12:11:30;;;;;;;9.70;3.50;;;;;;;25.98;57.59;99796.78;5022307;28;20212;-81
2023/10/13 12:13:56;;;;;;;8.83;3.60;;;;;;;26.15;57.38;99798.06;5020845;28;20195;-82
2023/10/13 12:16:22;;;;;;;5.37;3.20;;;;;;;26.13;57.99;99799.19;5020551;28;20200;-83
2023/10/13 12:18:53;;;;;;;8.90;3.03;;;;;;;26.22;57.99;99792.28;5022349;28;20211;-79
2023/10/13 12:21:21;;;;;;;7.17;3.47;;;;;;;26.37;58.17;99796.31;5046919;28;20226;-82
2023/10/13 12:23:47;;;;;;;14.30;4.40;;;;;;;26.47;58.54;99791.91;5040385;28;20270;-80
2023/10/13 12:26:32;;;;;;;10.43;3.60;;;;;;;26.26;58.12;99785.72;5016492;28;20374;-81
2023/10/13 12:29:06;;;;;;;7.40;3.10;;;;;;;26.24;57.71;99782.38;5014016;28;20207;-84
2023/10/13 12:31:32;;;;;;;6.43;3.40;;;;;;;26.45;57.45;99777.09;5014287;28;20243;-82
2023/10/13 12:34:06;;;;;;;7.17;3.80;;;;;;;26.37;57.82;99774.22;5024090;28;20222;-80
2023/10/13 12:36:41;;;;;;;7.33;3.73;;;;;;;26.36;57.54;99765.44;5026892;28;20194;-80
2023/10/13 12:52:16;;;;;;;11.27;4.03;;;;;;;26.21;57.40;99749.00;5016428;28;20204;-82
2023/10/13 12:57:32;;;;;;;5.47;3.37;;;;;;;26.30;57.96;99742.06;5022078;28;20211;-82
2023/10/13 12:59:58;;;;;;;6.03;3.60;;;;;;;26.35;56.95;99733.72;5017163;28;20269;-79
2023/10/13 13:02:25;;;;;;;6.87;3.40;;;;;;;26.35;57.02;99737.22;5022588;28;20206;-81
2023/10/13 13:05:01;;;;;;;8.83;3.70;;;;;;;26.15;57.09;99734.44;5021916;28;20198;-81
2023/10/13 13:07:29;;;;;;;10.27;4.17;;;;;;;26.31;57.17;99733.16;5041356;28;20761;-81
2023/10/13 13:09:58;;;;;;;11.10;4.00;;;;;;;26.24;58.05;99734.66;5014457;28;20298;-83
2023/10/13 13:12:24;;;;;;;8.33;3.27;;;;;;;26.57;57.62;99727.44;5020210;28;20215;-81
2023/10/13 13:14:54;;;;;;;5.23;3.27;;;;;;;26.55;57.30;99714.31;5017313;28;20932;-81
2023/10/13 13:17:20;;;;;;;8.43;3.43;;;;;;;26.54;57.84;99717.09;5008856;28;20205;-81
2023/10/13 13:19:45;;;;;;;8.63;4.10;;;;;;;26.48;57.20;99708.69;5020151;28;20728;-81
2023/10/13 13:22:13;;;;;;;7.47;4.07;;;;;;;26.46;57.71;99705.31;5021231;28;20215;-81
2023/10/13 13:24:43;;;;;;;6.10;4.03;;;;;;;26.57;57.61;99703.56;5020674;28;20198;-83
2023/10/13 13:27:19;;;;;;;10.57;3.60;;;;;;;26.48;56.98;99699.88;5017263;28;20652;-80
2023/10/13 13:29:45;;;;;;;8.20;3.63;;;;;;;26.48;57.77;99692.78;5012166;28;20214;-80
2023/10/13 13:32:18;;;;;;;6.87;3.83;;;;;;;26.25;57.33;99680.59;5024484;28;20238;-82
2023/10/13 13:34:53;;;;;;;6.93;3.47;;;;;;;26.31;57.55;99678.31;5023147;28;20647;-81
2023/10/13 13:37:19;;;;;;;6.63;3.33;;;;;;;26.55;57.75;99678.97;5020114;28;20218;-81
2023/10/13 13:39:45;;;;;;;5.67;3.70;;;;;;;26.36;57.27;99669.94;5023892;28;20651;-77
2023/10/13 13:42:17;;;;;;;14.70;3.80;;;;;;;26.30;57.44;99660.72;5015642;28;20285;-77
2023/10/13 13:44:46;;;;;;;5.37;3.60;;;;;;;26.32;57.20;99674.66;5018135;28;20341;-82
2023/10/13 13:47:12;;;;;;;7.67;3.53;;;;;;;26.28;57.43;99669.75;5016480;28;20192;-83
2023/10/13 13:49:46;;;;;;;8.80;4.27;;;;;;;26.37;57.95;99671.63;5017926;28;20194;-83
2023/10/13 13:52:17;;;;;;;6.70;3.93;;;;;;;26.39;58.46;99656.44;5019402;28;20706;-83
2023/10/13 13:54:43;;;;;;;6.47;3.00;;;;;;;26.45;58.12;99657.72;5017816;28;20179;-80
2023/10/13 13:57:09;;;;;;;8.33;3.63;;;;;;;26.24;56.98;99655.09;5022196;28;20597;-81
2023/10/13 13:59:36;;;;;;;7.83;3.37;;;;;;;26.25;56.91;99652.28;5015273;28;20195;-82
2023/10/13 14:02:06;;;;;;;10.37;3.73;;;;;;;26.33;57.20;99648.97;5017065;28;20219;-79
2023/10/13 14:04:32;;;;;;;6.47;3.47;;;;;;;26.39;57.18;99640.50;5018037;28;20277;-81
2023/10/13 14:06:57;;;;;;;6.33;3.67;;;;;;;26.32;57.11;99636.69;5015150;28;20219;-80
2023/10/13 14:09:40;;;;;;;10.63;3.47;;;;;;;26.21;57.79;99639.44;5018670;28;20616;-85
2023/10/13 14:15:01;;;;;;;5.20;3.13;;;;;;;26.29;57.59;99629.00;5022947;28;20201;-84
2023/10/13 14:17:28;;;;;;;11.30;3.97;;;;;;;26.29;57.48;99629.00;5022207;28;20208;-80
2023/10/13 14:19:58;;;;;;;11.97;4.00;;;;;;;26.35;57.72;99617.00;5020081;28;20194;-79
2023/10/13 14:22:27;;;;;;;8.63;4.17;;;;;;;26.27;57.67;99618.53;5017809;28;20200;-79
2023/10/13 14:24:56;;;;;;;10.03;3.73;;;;;;;26.12;58.34;99607.41;5027677;28;20183;-80
2023/10/13 14:27:25;;;;;;;10.10;3.87;;;;;;;26.20;58.34;99596.13;5047241;28;20193;-79
2023/10/13 14:29:52;;;;;;;9.20;3.60;;;;;;;26.10;58.66;99596.06;5045579;28;20215;-80
2023/10/13 14:32:19;;;;;;;5.60;3.73;;;;;;;26.16;58.47;99592.91;5026142;28;20224;-81
2023/10/13 14:34:48;;;;;;;7.83;3.97;;;;;;;26.15;58.34;99591.25;5017192;28;20184;-81
2023/10/13 14:37:14;;;;;;;5.70;4.10;;;;;;;26.17;58.99;99591.09;5046681;28;20204;-81
2023/10/13 14:39:42;;;;;;;6.83;3.43;;;;;;;26.16;58.12;99581.50;5025083;28;20194;-81
2023/10/13 14:42:08;;;;;;;7.27;3.30;;;;;;;26.16;57.78;99594.75;5017072;28;20261;-82